createdAt,value
2022-08-26T00:00:21.586Z,100.00
2022-08-26T00:05:25.960Z,100.00
2022-08-26T00:10:29.653Z,100.00
2022-08-26T00:15:32.901Z,100.00
2022-08-26T00:20:36.291Z,100.00
2022-08-26T00:25:42.565Z,100.00
2022-08-26T00:30:48.916Z,100.00
2022-08-26T00:35:54.761Z,100.00
2022-08-26T00:40:58.748Z,100.00
2022-08-26T00:46:13.140Z,100.00
2022-08-26T00:51:20.653Z,100.00
2022-08-26T00:56:42.258Z,100.00
2022-08-26T01:01:46.081Z,100.00
2022-08-26T01:06:54.491Z,100.00
2022-08-26T01:12:01.722Z,100.00
2022-08-26T01:17:07.197Z,100.00
2022-08-26T01:22:33.509Z,100.00
2022-08-26T01:27:37.581Z,100.00
2022-08-26T01:32:41.370Z,100.00
2022-08-26T01:37:45.661Z,100.00
2022-08-26T01:42:49.970Z,100.00
2022-08-26T01:47:56.899Z,100.00
2022-08-26T01:53:03.801Z,100.00
2022-08-26T01:58:14.709Z,100.00
2022-08-26T02:03:19.269Z,100.00
2022-08-26T02:08:36.745Z,100.00
2022-08-26T02:13:47.330Z,100.00
2022-08-26T02:18:53.349Z,100.00
2022-08-26T02:23:57.744Z,100.00
2022-08-26T02:29:06.080Z,100.00
2022-08-26T02:34:16.350Z,100.00
2022-08-26T02:39:22.247Z,100.00
2022-08-26T02:44:26.550Z,100.00
2022-08-26T02:49:31.233Z,100.00
2022-08-26T02:54:34.284Z,100.00
2022-08-26T02:59:39.969Z,100.00
2022-08-26T03:04:57.836Z,100.00
2022-08-26T03:10:08.438Z,100.00
2022-08-26T03:15:17.635Z,100.00
2022-08-26T03:20:21.390Z,100.00
2022-08-26T03:25:26.487Z,100.00
2022-08-26T03:30:45.053Z,100.00
2022-08-26T03:35:50.522Z,100.00
2022-08-26T03:40:56.313Z,100.00
2022-08-26T03:46:04.784Z,100.00
2022-08-26T03:51:18.262Z,100.00
2022-08-26T03:56:22.243Z,100.00
2022-08-26T04:01:25.585Z,100.00
2022-08-26T04:06:39.672Z,100.00
2022-08-26T04:11:45.138Z,100.00
2022-08-26T04:16:51.615Z,100.00
2022-08-26T04:21:55.226Z,100.00
2022-08-26T04:26:58.659Z,100.00
2022-08-26T04:32:03.854Z,100.00
2022-08-26T04:37:08.550Z,100.00
2022-08-26T04:42:14.157Z,100.00
2022-08-26T04:47:17.369Z,100.00
2022-08-26T04:52:22.717Z,100.00
2022-08-26T04:57:25.976Z,100.00
2022-08-26T05:02:29.284Z,100.00
2022-08-26T05:07:32.355Z,100.00
2022-08-26T05:12:36.722Z,100.00
2022-08-26T05:17:41.023Z,100.00
2022-08-26T05:22:44.930Z,100.00
2022-08-26T05:27:48.669Z,100.00
2022-08-26T05:32:55.202Z,100.00
2022-08-26T05:38:03.432Z,100.00
2022-08-26T05:43:11.232Z,100.00
2022-08-26T05:48:17.628Z,100.00
2022-08-26T05:53:26.017Z,100.00
2022-08-26T05:58:29.680Z,100.00
2022-08-26T06:03:36.546Z,100.00
2022-08-26T06:08:39.825Z,100.00
2022-08-26T06:13:43.021Z,100.00
2022-08-26T06:18:48.830Z,100.00
2022-08-26T06:24:16.213Z,100.00
2022-08-26T06:29:24.071Z,100.00
2022-08-26T06:34:30.292Z,100.00
2022-08-26T06:39:34.206Z,100.00
2022-08-26T06:44:37.810Z,100.00
2022-08-26T06:49:44.399Z,100.00
2022-08-26T06:54:47.776Z,100.00
2022-08-26T06:59:51.422Z,100.00
2022-08-26T07:04:56.853Z,100.00
2022-08-26T07:10:00.940Z,100.00
2022-08-26T07:15:05.173Z,100.00
2022-08-26T07:20:09.905Z,100.00
2022-08-26T07:25:15.726Z,100.00
2022-08-26T07:30:19.218Z,100.00
2022-08-26T07:35:23.662Z,100.00
2022-08-26T07:40:26.972Z,100.00
2022-08-26T07:45:30.630Z,100.00
2022-08-26T07:50:49.133Z,100.00
2022-08-26T07:55:53.803Z,100.00
2022-08-26T08:00:57.357Z,100.00
2022-08-26T08:06:02.010Z,100.00
2022-08-26T08:11:05.458Z,100.00
2022-08-26T08:16:12.736Z,100.00
2022-08-26T08:21:22.155Z,100.00
2022-08-26T08:26:27.684Z,100.00
2022-08-26T08:31:55.718Z,100.00
2022-08-26T08:36:58.504Z,100.00
2022-08-26T08:42:16.850Z,92.53
2022-08-26T08:47:36.704Z,100.00
2022-08-26T08:52:42.424Z,100.00
2022-08-26T08:58:07.893Z,99.81
2022-08-26T09:03:25.276Z,98.49
2022-08-26T09:08:33.498Z,78.90
2022-08-26T09:13:39.354Z,89.92
2022-08-26T09:19:11.901Z,79.92
2022-08-26T09:24:14.997Z,79.95
2022-08-26T09:29:27.503Z,81.92
2022-08-26T09:34:30.790Z,84.86
2022-08-26T09:39:38.945Z,82.22
2022-08-26T09:44:57.495Z,87.14
2022-08-26T09:50:12.703Z,90.78
2022-08-26T09:55:22.995Z,99.25
2022-08-26T10:00:34.462Z,98.33
2022-08-26T10:05:58.250Z,100.00
2022-08-26T10:11:05.257Z,100.00
2022-08-26T10:16:57.219Z,100.00
2022-08-26T10:22:08.349Z,100.00
2022-08-26T10:27:35.362Z,100.00
2022-08-26T10:32:42.361Z,100.00
2022-08-26T10:38:11.267Z,100.00
2022-08-26T10:43:25.706Z,100.00
2022-08-26T10:48:35.529Z,100.00
2022-08-26T10:53:56.634Z,96.95
2022-08-26T10:59:19.707Z,100.00
2022-08-26T11:04:56.449Z,100.00
2022-08-26T11:10:01.891Z,100.00
2022-08-26T11:15:12.074Z,92.99
2022-08-26T11:20:41.831Z,87.89
2022-08-26T11:25:57.583Z,88.46
2022-08-26T11:31:01.174Z,94.93
2022-08-26T11:36:11.488Z,85.56
2022-08-26T11:41:22.273Z,80.10
2022-08-26T11:46:37.071Z,82.22
2022-08-26T11:51:42.552Z,78.44
2022-08-26T11:56:52.614Z,79.88
2022-08-26T12:01:58.924Z,79.12
2022-08-26T12:07:10.608Z,80.67
2022-08-26T12:12:52.923Z,75.59
2022-08-26T12:18:34.779Z,69.86
2022-08-26T12:24:10.932Z,74.07
2022-08-26T12:49:24.869Z,71.78
2022-08-26T12:55:05.057Z,74.08
2022-08-26T13:06:43.325Z,68.21
2022-08-26T13:19:10.218Z,63.84
2022-08-26T13:32:01.928Z,67.57
2022-08-26T13:37:24.382Z,66.09
2022-08-26T13:49:44.436Z,62.45
2022-08-26T13:55:30.980Z,63.77
2022-08-26T14:02:10.720Z,50.65
2022-08-26T14:08:16.676Z,47.69
2022-08-26T14:13:59.112Z,44.04
2022-08-26T14:19:25.627Z,45.47
2022-08-26T14:24:41.199Z,45.41
2022-08-26T14:30:12.152Z,45.07
2022-08-26T14:35:39.909Z,41.93
2022-08-26T14:40:47.036Z,45.78
2022-08-26T14:45:50.055Z,45.32
2022-08-26T14:50:53.184Z,48.20
2022-08-26T14:55:56.325Z,59.35
2022-08-26T15:01:00.980Z,62.60
2022-08-26T15:06:08.159Z,61.33
2022-08-26T15:11:11.903Z,64.10
2022-08-26T15:16:15.455Z,65.47
2022-08-26T15:34:03.861Z,67.40
2022-08-26T15:52:17.192Z,75.78
2022-08-26T16:11:05.107Z,77.48
2022-08-26T16:17:23.145Z,77.21
2022-08-26T17:05:27.530Z,89.49
2022-08-26T17:28:56.049Z,100.00
2022-08-26T17:34:04.881Z,100.00
2022-08-26T17:39:08.094Z,100.00
2022-08-26T17:44:11.784Z,100.00
2022-08-26T17:49:15.270Z,100.00
2022-08-26T17:54:19.863Z,100.00
2022-08-26T17:59:22.928Z,100.00
2022-08-26T18:04:35.204Z,100.00
2022-08-26T18:09:38.303Z,100.00
2022-08-26T18:14:41.551Z,100.00
2022-08-26T18:19:47.749Z,100.00
2022-08-26T18:24:58.664Z,100.00
2022-08-26T18:30:04.883Z,100.00
2022-08-26T18:35:09.273Z,100.00
2022-08-26T18:40:15.002Z,100.00
2022-08-26T18:45:18.528Z,100.00
2022-08-26T18:50:21.980Z,100.00
2022-08-26T18:55:25.673Z,100.00
2022-08-26T19:00:28.842Z,100.00
2022-08-26T19:05:32.028Z,100.00
2022-08-26T19:18:10.817Z,100.00
2022-08-26T19:23:38.096Z,100.00
2022-08-26T19:34:41.706Z,100.00
2022-08-26T19:39:45.073Z,100.00
2022-08-26T19:45:25.107Z,100.00
2022-08-26T19:50:38.020Z,100.00
2022-08-26T19:55:43.845Z,100.00
2022-08-26T20:00:47.303Z,100.00
2022-08-26T20:05:50.399Z,100.00
2022-08-26T20:10:53.499Z,100.00
2022-08-26T20:15:56.580Z,100.00
2022-08-26T20:21:18.514Z,100.00
2022-08-26T20:26:23.599Z,100.00
2022-08-26T20:31:27.626Z,100.00
2022-08-26T20:36:32.147Z,100.00
2022-08-26T20:41:36.321Z,100.00
2022-08-26T20:46:41.255Z,100.00
2022-08-26T20:51:45.384Z,100.00
2022-08-26T20:56:48.725Z,100.00
2022-08-26T21:01:54.134Z,100.00
2022-08-26T21:06:57.205Z,100.00
2022-08-26T21:12:00.336Z,100.00
2022-08-26T21:17:04.688Z,100.00
2022-08-26T21:22:07.800Z,100.00
2022-08-26T21:27:11.119Z,100.00
2022-08-26T21:32:15.731Z,100.00
2022-08-26T21:37:19.115Z,100.00
2022-08-26T21:42:23.272Z,100.00
2022-08-26T21:47:26.704Z,100.00
2022-08-26T21:52:29.972Z,100.00
2022-08-26T21:57:34.485Z,100.00
2022-08-26T22:02:38.092Z,100.00
2022-08-26T22:07:41.495Z,100.00
2022-08-26T22:12:44.775Z,100.00
2022-08-26T22:17:47.924Z,100.00
2022-08-26T22:22:51.213Z,100.00
2022-08-26T22:27:56.905Z,100.00
2022-08-26T22:33:00.211Z,100.00
2022-08-26T22:38:03.369Z,100.00
2022-08-26T22:43:06.704Z,100.00
2022-08-26T22:48:11.423Z,100.00
2022-08-26T22:53:16.397Z,100.00
2022-08-26T22:58:20.375Z,100.00
2022-08-26T23:03:26.539Z,100.00
2022-08-26T23:08:29.849Z,100.00
2022-08-26T23:13:33.148Z,100.00
2022-08-26T23:18:37.035Z,100.00
2022-08-26T23:23:42.950Z,100.00
2022-08-26T23:28:48.928Z,100.00
2022-08-26T23:34:11.147Z,100.00
2022-08-26T23:39:16.013Z,100.00
2022-08-26T23:44:20.475Z,100.00
2022-08-26T23:49:24.863Z,100.00
2022-08-26T23:54:28.513Z,100.00
2022-08-26T23:59:33.354Z,100.00
